Time,TemperatureF,DewpointF,PressureIn,WindDirection,WindDirectionDegrees,WindSpeedMPH,WindSpeedGustMPH,Humidity,HourlyPrecipIn,Conditions,Clouds,dailyrainin,SoftwareType,DateUTC
2013-03-24 00:09:00,33.4,19.0,29.65,NE,53,4.0,8.0,55,0.00,,,0.00,weatherlink.com 1.10,2013-03-24 04:09:00,
2013-03-24 00:24:00,33.2,18.0,29.64,NE,37,4.0,10.0,55,0.00,,,0.00,weatherlink.com 1.10,2013-03-24 04:24:00,
2013-03-24 00:39:00,33.0,18.0,29.65,North,11,2.0,8.0,55,0.00,,,0.00,weatherlink.com 1.10,2013-03-24 04:39:00,
2013-03-24 00:54:00,32.3,18.0,29.65,NE,46,2.0,9.0,57,0.00,,,0.00,weatherlink.com 1.10,2013-03-24 04:54:00,
2013-03-24 01:10:00,32.6,19.0,29.65,NE,37,11.0,12.0,57,0.00,,,0.00,weatherlink.com 1.10,2013-03-24 05:10:00,
2013-03-24 01:25:00,32.4,19.0,29.65,North,355,4.0,9.0,59,0.00,,,0.00,weatherlink.com 1.10,2013-03-24 05:25:00,
2013-03-24 01:40:00,32.4,20.0,29.65,ENE,72,4.0,10.0,61,0.00,,,0.00,weatherlink.com 1.10,2013-03-24 05:40:00,
2013-03-24 01:55:00,32.1,20.0,29.64,NNW,347,9.0,12.0,61,0.00,,,0.00,weatherlink.com 1.10,2013-03-24 05:55:00,
2013-03-24 02:10:00,32.0,20.0,29.64,NW,312,2.0,9.0,62,0.00,,,0.00,weatherlink.com 1.10,2013-03-24 06:10:00,
2013-03-24 02:25:00,31.8,20.0,29.64,ENE,60,3.0,11.0,62,0.00,,,0.00,weatherlink.com 1.10,2013-03-24 06:25:00,
2013-03-24 02:40:00,31.9,21.0,29.64,North,9,4.0,6.0,64,0.00,,,0.00,weatherlink.com 1.10,2013-03-24 06:40:00,
2013-03-24 02:55:00,31.8,20.0,29.64,NNE,33,2.0,10.0,63,0.00,,,0.00,weatherlink.com 1.10,2013-03-24 06:55:00,
2013-03-24 03:10:00,31.6,21.0,29.64,East,98,2.0,8.0,64,0.00,,,0.00,weatherlink.com 1.10,2013-03-24 07:10:00,
2013-03-24 03:25:00,31.4,21.0,29.63,NNE,28,2.0,10.0,65,0.00,,,0.00,weatherlink.com 1.10,2013-03-24 07:25:00,
2013-03-24 03:40:00,31.7,22.0,29.63,North,8,6.0,9.0,68,0.00,,,0.00,weatherlink.com 1.10,2013-03-24 07:40:00,
2013-03-24 03:55:00,31.3,21.0,29.62,NE,37,5.0,9.0,66,0.00,,,0.00,weatherlink.com 1.10,2013-03-24 07:55:00,
2013-03-24 04:10:00,31.3,21.0,29.62,ENE,71,6.0,6.0,66,0.00,,,0.00,weatherlink.com 1.10,2013-03-24 08:10:00,
2013-03-24 04:25:00,31.2,22.0,29.62,ENE,61,2.0,8.0,68,0.00,,,0.00,weatherlink.com 1.10,2013-03-24 08:25:00,
2013-03-24 04:40:00,31.2,21.0,29.62,ENE,74,6.0,8.0,66,0.00,,,0.00,weatherlink.com 1.10,2013-03-24 08:40:00,
2013-03-24 04:55:00,31.0,21.0,29.62,North,1,3.0,7.0,67,0.00,,,0.00,weatherlink.com 1.10,2013-03-24 08:55:00,
2013-03-24 05:10:00,31.0,21.0,29.63,NNE,30,5.0,5.0,66,0.00,,,0.00,weatherlink.com 1.10,2013-03-24 09:10:00,
2013-03-24 05:25:00,31.3,24.0,29.64,North,349,2.0,7.0,74,0.00,,,0.00,weatherlink.com 1.10,2013-03-24 09:25:00,
2013-03-24 05:40:00,32.7,29.0,29.64,NNE,18,4.0,8.0,86,0.00,,,0.00,weatherlink.com 1.10,2013-03-24 09:40:00,
2013-03-24 05:55:00,31.1,21.0,29.64,North,6,2.0,6.0,67,0.00,,,0.00,weatherlink.com 1.10,2013-03-24 09:55:00,
2013-03-24 06:10:00,31.0,23.0,29.65,NNE,18,1.0,6.0,71,0.00,,,0.00,weatherlink.com 1.10,2013-03-24 10:10:00,
2013-03-24 06:25:00,30.4,22.0,29.66,North,359,4.0,6.0,71,0.00,,,0.00,weatherlink.com 1.10,2013-03-24 10:25:00,
2013-03-24 06:40:00,32.4,28.0,29.67,NNW,340,1.0,7.0,85,0.00,,,0.00,weatherlink.com 1.10,2013-03-24 10:40:00,
2013-03-24 06:55:00,30.5,22.0,29.68,North,5,1.0,6.0,70,0.00,,,0.00,weatherlink.com 1.10,2013-03-24 10:55:00,
2013-03-24 07:10:00,30.8,24.0,29.67,NE,43,2.0,7.0,75,0.00,,,0.00,weatherlink.com 1.10,2013-03-24 11:10:00,
2013-03-24 07:25:00,30.7,22.0,29.67,North,357,4.0,7.0,71,0.00,,,0.00,weatherlink.com 1.10,2013-03-24 11:25:00,
2013-03-24 07:40:00,31.8,22.0,29.66,North,8,3.0,10.0,68,0.00,,,0.00,weatherlink.com 1.10,2013-03-24 11:40:00,
2013-03-24 07:55:00,32.4,23.0,29.66,East,88,3.0,8.0,68,0.00,,,0.00,weatherlink.com 1.10,2013-03-24 11:55:00,
2013-03-24 08:10:00,33.2,23.0,29.65,ENE,78,11.0,11.0,65,0.00,,,0.00,weatherlink.com 1.10,2013-03-24 12:10:00,
2013-03-24 08:25:00,34.1,23.0,29.66,NE,53,7.0,15.0,63,0.00,,,0.00,weatherlink.com 1.10,2013-03-24 12:25:00,
2013-03-24 08:40:00,34.8,23.0,29.67,North,5,5.0,11.0,62,0.00,,,0.00,weatherlink.com 1.10,2013-03-24 12:40:00,
2013-03-24 08:55:00,35.5,23.0,29.67,East,80,5.0,16.0,60,0.00,,,0.00,weatherlink.com 1.10,2013-03-24 12:55:00,
2013-03-24 09:10:00,36.2,23.0,29.67,WNW,296,4.0,14.0,59,0.00,,,0.00,weatherlink.com 1.10,2013-03-24 13:10:00,
2013-03-24 09:26:00,37.3,23.0,29.68,ENE,70,6.0,11.0,56,0.00,,,0.00,weatherlink.com 1.10,2013-03-24 13:26:00,
2013-03-24 09:41:00,37.8,23.0,29.68,NE,54,9.0,14.0,55,0.00,,,0.00,weatherlink.com 1.10,2013-03-24 13:41:00,
2013-03-24 09:56:00,38.2,22.0,29.67,ENE,75,10.0,18.0,53,0.00,,,0.00,weatherlink.com 1.10,2013-03-24 13:56:00,
2013-03-24 10:11:00,39.1,23.0,29.67,ENE,67,7.0,12.0,53,0.00,,,0.00,weatherlink.com 1.10,2013-03-24 14:11:00,
2013-03-24 10:56:00,40.8,23.0,29.65,ENE,70,3.0,10.0,50,0.00,,,0.00,weatherlink.com 1.10,2013-03-24 14:56:00,
2013-03-24 11:26:00,41.7,23.0,29.64,ESE,120,2.0,15.0,47,0.00,,,0.00,weatherlink.com 1.10,2013-03-24 15:26:00,
2013-03-24 11:41:00,42.4,23.0,29.64,NNW,328,2.0,17.0,46,0.00,,,0.00,weatherlink.com 1.10,2013-03-24 15:41:00,
2013-03-24 11:56:00,43.4,23.0,29.63,ENE,70,6.0,8.0,44,0.00,,,0.00,weatherlink.com 1.10,2013-03-24 15:56:00,
2013-03-24 12:41:00,43.9,23.0,29.61,SE,134,4.0,12.0,44,0.00,,,0.00,weatherlink.com 1.10,2013-03-24 16:41:00,
2013-03-24 12:56:00,44.4,22.0,29.61,ENE,74,7.0,12.0,42,0.00,,,0.00,weatherlink.com 1.10,2013-03-24 16:56:00,
2013-03-24 13:11:00,44.3,22.0,29.60,East,82,5.0,13.0,41,0.00,,,0.00,weatherlink.com 1.10,2013-03-24 17:11:00,
2013-03-24 13:26:00,44.5,24.0,29.60,SE,128,3.0,11.0,44,0.00,,,0.00,weatherlink.com 1.10,2013-03-24 17:26:00,
2013-03-24 13:41:00,45.4,24.0,29.59,SE,124,4.0,12.0,43,0.00,,,0.00,weatherlink.com 1.10,2013-03-24 17:41:00,
2013-03-24 13:56:00,45.5,23.0,29.59,East,91,5.0,8.0,42,0.00,,,0.00,weatherlink.com 1.10,2013-03-24 17:56:00,
2013-03-24 14:11:00,45.9,23.0,29.59,ESE,105,2.0,10.0,40,0.00,,,0.00,weatherlink.com 1.10,2013-03-24 18:11:00,
2013-03-24 14:41:00,47.6,24.0,29.58,NNE,30,4.0,8.0,40,0.00,,,0.00,weatherlink.com 1.10,2013-03-24 18:41:00,
2013-03-24 14:56:00,47.6,23.0,29.57,SE,128,5.0,12.0,38,0.00,,,0.00,weatherlink.com 1.10,2013-03-24 18:56:00,
2013-03-24 15:11:00,47.1,22.0,29.56,SE,126,1.0,8.0,38,0.00,,,0.00,weatherlink.com 1.10,2013-03-24 19:11:00,
2013-03-24 15:26:00,47.1,22.0,29.55,SE,124,3.0,9.0,37,0.00,,,0.00,weatherlink.com 1.10,2013-03-24 19:26:00,
2013-03-24 15:42:00,46.9,24.0,29.55,SE,134,2.0,8.0,40,0.00,,,0.00,weatherlink.com 1.10,2013-03-24 19:42:00,
2013-03-24 15:57:00,47.1,22.0,29.54,SSE,159,1.0,8.0,37,0.00,,,0.00,weatherlink.com 1.10,2013-03-24 19:57:00,
2013-03-24 16:12:00,47.9,23.0,29.54,SSW,205,3.0,9.0,38,0.00,,,0.00,weatherlink.com 1.10,2013-03-24 20:12:00,
2013-03-24 16:27:00,48.0,23.0,29.54,SW,217,2.0,7.0,38,0.00,,,0.00,weatherlink.com 1.10,2013-03-24 20:27:00,
2013-03-24 16:42:00,47.9,23.0,29.54,SW,222,4.0,6.0,37,0.00,,,0.00,weatherlink.com 1.10,2013-03-24 20:42:00,
2013-03-24 16:57:00,47.7,23.0,29.54,SSW,212,3.0,6.0,38,0.00,,,0.00,weatherlink.com 1.10,2013-03-24 20:57:00,
2013-03-24 17:13:00,47.5,23.0,29.53,SSW,211,0.0,4.0,39,0.00,,,0.00,weatherlink.com 1.10,2013-03-24 21:13:00,
2013-03-24 17:27:00,46.6,23.0,29.53,SSE,151,1.0,5.0,39,0.00,,,0.00,weatherlink.com 1.10,2013-03-24 21:27:00,
2013-03-24 17:42:00,46.7,24.0,29.53,SSE,148,2.0,3.0,41,0.00,,,0.00,weatherlink.com 1.10,2013-03-24 21:42:00,
2013-03-24 17:57:00,46.0,23.0,29.53,SSE,148,4.0,5.0,40,0.00,,,0.00,weatherlink.com 1.10,2013-03-24 21:57:00,
2013-03-24 18:12:00,45.1,25.0,29.54,SW,221,3.0,10.0,45,0.00,,,0.00,weatherlink.com 1.10,2013-03-24 22:12:00,
2013-03-24 18:27:00,42.8,24.0,29.54,WSW,248,6.0,8.0,48,0.00,,,0.00,weatherlink.com 1.10,2013-03-24 22:27:00,
2013-03-24 18:42:00,41.3,25.0,29.55,SSE,166,0.0,8.0,52,0.00,,,0.00,weatherlink.com 1.10,2013-03-24 22:42:00,
2013-03-24 18:57:00,40.3,25.0,29.56,SW,232,4.0,6.0,54,0.00,,,0.00,weatherlink.com 1.10,2013-03-24 22:57:00,
2013-03-24 19:12:00,39.3,26.0,29.56,WSW,243,2.0,4.0,59,0.00,,,0.00,weatherlink.com 1.10,2013-03-24 23:12:00,
2013-03-24 19:27:00,38.5,26.0,29.57,SSW,205,1.0,5.0,62,0.00,,,0.00,weatherlink.com 1.10,2013-03-24 23:27:00,
2013-03-24 19:42:00,37.6,27.0,29.56,WSW,248,1.0,2.0,65,0.00,,,0.00,weatherlink.com 1.10,2013-03-24 23:42:00,
2013-03-24 19:57:00,36.9,27.0,29.57,WSW,245,0.0,1.0,67,0.00,,,0.00,weatherlink.com 1.10,2013-03-24 23:57:00,
2013-03-24 20:12:00,36.2,28.0,29.57,WSW,243,0.0,1.0,71,0.00,,,0.00,weatherlink.com 1.10,2013-03-25 00:12:00,
2013-03-24 20:27:00,36.5,28.0,29.59,WSW,243,0.0,1.0,71,0.00,,,0.00,weatherlink.com 1.10,2013-03-25 00:27:00,
2013-03-24 20:42:00,37.3,29.0,29.61,NW,314,0.0,2.0,72,0.00,,,0.00,weatherlink.com 1.10,2013-03-25 00:42:00,
2013-03-24 20:57:00,37.7,30.0,29.61,WNW,301,0.0,2.0,73,0.00,,,0.00,weatherlink.com 1.10,2013-03-25 00:57:00,
2013-03-24 21:12:00,38.1,30.0,29.61,North,356,0.0,2.0,73,0.00,,,0.00,weatherlink.com 1.10,2013-03-25 01:12:00,
2013-03-24 21:27:00,37.2,30.0,29.61,NNW,333,0.0,1.0,74,0.00,,,0.00,weatherlink.com 1.10,2013-03-25 01:27:00,
2013-03-24 21:42:00,37.3,32.0,29.61,North,6,1.0,4.0,80,0.00,,,0.00,weatherlink.com 1.10,2013-03-25 01:42:00,
2013-03-24 21:57:00,38.2,30.0,29.61,NW,326,0.0,2.0,73,0.00,,,0.00,weatherlink.com 1.10,2013-03-25 01:57:00,
2013-03-24 22:12:00,37.0,29.0,29.60,NW,326,0.0,1.0,73,0.00,,,0.00,weatherlink.com 1.10,2013-03-25 02:12:00,
2013-03-24 22:27:00,36.1,29.0,29.60,NW,326,0.0,0.0,74,0.00,,,0.00,weatherlink.com 1.10,2013-03-25 02:27:00,
2013-03-24 22:42:00,34.1,28.0,29.60,NNW,327,0.0,0.0,78,0.00,,,0.00,weatherlink.com 1.10,2013-03-25 02:42:00,
2013-03-24 22:57:00,33.4,29.0,29.60,NNW,328,0.0,1.0,83,0.00,,,0.00,weatherlink.com 1.10,2013-03-25 02:57:00,
2013-03-24 23:12:00,33.1,29.0,29.59,NNW,328,0.0,1.0,83,0.00,,,0.00,weatherlink.com 1.10,2013-03-25 03:12:00,
2013-03-24 23:27:00,32.3,28.0,29.59,NNW,328,0.0,0.0,83,0.00,,,0.00,weatherlink.com 1.10,2013-03-25 03:27:00,
2013-03-24 23:42:00,31.7,28.0,29.59,NNW,328,0.0,0.0,87,0.00,,,0.00,weatherlink.com 1.10,2013-03-25 03:42:00,
2013-03-24 23:57:00,31.3,28.0,29.59,NNW,328,0.0,1.0,87,0.00,,,0.00,weatherlink.com 1.10,2013-03-25 03:57:00,